createdAt,value
2022-12-29T00:00:08.052Z,99223.81
2022-12-29T00:02:41.553Z,99228.00
2022-12-29T00:05:08.377Z,99222.56
2022-12-29T00:07:34.951Z,99216.19
2022-12-29T00:10:01.791Z,99232.75
2022-12-29T00:12:49.671Z,99226.56
2022-12-29T00:15:35.108Z,99229.28
2022-12-29T00:18:01.849Z,99233.31
2022-12-29T00:21:03.476Z,99227.97
2022-12-29T00:23:48.927Z,99220.88
2022-12-29T00:26:36.301Z,99222.56
2022-12-29T00:29:22.311Z,99227.41
2022-12-29T00:32:07.463Z,99211.25
2022-12-29T00:34:52.998Z,99211.69
2022-12-29T00:37:39.499Z,99203.66
2022-12-29T00:40:25.058Z,99197.63
2022-12-29T00:43:13.147Z,99203.13
2022-12-29T00:45:42.780Z,99200.53
2022-12-29T00:48:09.820Z,99196.69
2022-12-29T00:50:36.715Z,99182.28
2022-12-29T00:53:03.239Z,99176.16
2022-12-29T00:55:30.102Z,99170.66
2022-12-29T00:57:56.743Z,99170.38
2022-12-29T01:00:23.337Z,99169.50
2022-12-29T01:02:50.297Z,99149.88
2022-12-29T01:05:17.208Z,99152.56
2022-12-29T01:07:45.776Z,99141.38
2022-12-29T01:10:12.328Z,99132.38
2022-12-29T01:12:42.526Z,99134.59
2022-12-29T01:15:12.648Z,99147.38
2022-12-29T01:17:39.419Z,99138.19
2022-12-29T01:20:06.973Z,99150.34
2022-12-29T01:22:33.941Z,99147.63
2022-12-29T01:25:00.449Z,99149.69
2022-12-29T01:27:27.017Z,99150.63
2022-12-29T01:29:53.549Z,99153.59
2022-12-29T01:32:20.076Z,99151.25
2022-12-29T01:34:46.929Z,99146.03
2022-12-29T01:37:13.480Z,99134.97
2022-12-29T01:39:41.000Z,99137.34
2022-12-29T01:42:17.116Z,99126.84
2022-12-29T01:44:51.767Z,99136.53
2022-12-29T01:47:42.649Z,99122.81
2022-12-29T01:50:21.700Z,99121.66
2022-12-29T01:53:19.992Z,99122.47
2022-12-29T01:55:52.982Z,99129.84
2022-12-29T01:58:23.463Z,99124.84
2022-12-29T02:00:50.311Z,99117.66
2022-12-29T02:03:20.468Z,99110.72
2022-12-29T02:05:59.114Z,99118.22
2022-12-29T02:08:29.469Z,99112.56
2022-12-29T02:11:00.955Z,99112.69
2022-12-29T02:13:29.187Z,99104.66
2022-12-29T02:16:38.242Z,99106.31
2022-12-29T02:19:34.430Z,99084.28
2022-12-29T02:22:19.470Z,99099.41
2022-12-29T02:25:09.038Z,99098.28
2022-12-29T02:27:42.279Z,99092.25
2022-12-29T02:30:18.500Z,99089.56
2022-12-29T02:32:57.455Z,99090.44
2022-12-29T02:35:41.697Z,99085.34
2022-12-29T02:38:21.507Z,99084.97
2022-12-29T02:41:03.874Z,99080.38
2022-12-29T02:43:47.220Z,99069.19
2022-12-29T02:46:38.296Z,99067.88
2022-12-29T02:49:24.539Z,99069.38
2022-12-29T02:51:59.321Z,99066.28
2022-12-29T02:54:44.228Z,99062.88
2022-12-29T02:57:33.641Z,99063.09
2022-12-29T03:00:13.326Z,99060.13
2022-12-29T03:03:00.165Z,99072.31
2022-12-29T03:05:51.311Z,99072.69
2022-12-29T03:08:35.129Z,99074.78
2022-12-29T03:11:06.236Z,99081.81
2022-12-29T03:14:12.328Z,99064.28
2022-12-29T03:16:50.664Z,99067.72
2022-12-29T03:19:36.461Z,99053.50
2022-12-29T03:22:28.761Z,99053.97
2022-12-29T03:25:06.520Z,99050.38
2022-12-29T03:27:57.862Z,99043.00
2022-12-29T03:30:28.066Z,99030.97
2022-12-29T03:33:03.224Z,99037.78
2022-12-29T03:35:35.936Z,99043.09
2022-12-29T03:38:14.759Z,99038.38
2022-12-29T03:40:45.015Z,99025.47
2022-12-29T03:43:14.005Z,99024.56
2022-12-29T03:45:40.929Z,99014.31
2022-12-29T03:48:07.831Z,99010.16
2022-12-29T03:50:37.571Z,99012.03
2022-12-29T03:53:04.187Z,99010.00
2022-12-29T03:55:31.507Z,99007.66
2022-12-29T03:57:58.313Z,99008.03
2022-12-29T04:00:46.021Z,99011.66
2022-12-29T04:03:13.132Z,99012.94
2022-12-29T04:05:39.896Z,98999.47
2022-12-29T04:08:06.551Z,99009.22
2022-12-29T04:10:33.169Z,99004.81
2022-12-29T04:13:03.239Z,98990.47
2022-12-29T04:15:29.820Z,98988.06
2022-12-29T04:17:57.723Z,99002.25
2022-12-29T04:20:43.543Z,98997.72
2022-12-29T04:23:10.214Z,98989.69
2022-12-29T04:25:38.092Z,98991.50
2022-12-29T04:28:09.114Z,98983.28
2022-12-29T04:30:48.742Z,98996.16
2022-12-29T04:33:23.082Z,98988.44
2022-12-29T04:35:50.037Z,98976.81
2022-12-29T04:38:17.657Z,98977.16
2022-12-29T04:40:45.653Z,98980.88
2022-12-29T04:43:13.353Z,98977.63
2022-12-29T04:45:58.303Z,98980.59
2022-12-29T04:48:33.151Z,98975.09
2022-12-29T04:51:11.356Z,98976.34
2022-12-29T04:53:40.018Z,98979.72
2022-12-29T04:56:07.994Z,98977.81
2022-12-29T04:58:34.657Z,98980.97
2022-12-29T05:01:01.297Z,98988.66
2022-12-29T05:03:30.833Z,98981.59
2022-12-29T05:05:58.473Z,98986.34
2022-12-29T05:08:28.362Z,98977.16
2022-12-29T05:10:58.989Z,98977.38
2022-12-29T05:13:26.496Z,98976.66
2022-12-29T05:15:54.049Z,98967.75
2022-12-29T05:18:22.974Z,98974.31
2022-12-29T05:20:50.365Z,98976.94
2022-12-29T05:23:18.861Z,98963.63
2022-12-29T05:25:50.280Z,98969.44
2022-12-29T05:28:20.133Z,98967.41
2022-12-29T05:30:53.422Z,98957.84
2022-12-29T05:33:20.721Z,98973.97
2022-12-29T05:35:50.142Z,98976.50
2022-12-29T05:38:17.757Z,98965.72
2022-12-29T05:40:46.117Z,98966.38
2022-12-29T05:43:47.206Z,98955.94
2022-12-29T05:46:32.402Z,98959.97
2022-12-29T05:49:11.228Z,98945.28
2022-12-29T05:51:52.434Z,98950.97
2022-12-29T05:54:19.289Z,98945.44
2022-12-29T05:56:46.582Z,98939.75
2022-12-29T05:59:13.406Z,98947.97
2022-12-29T06:01:40.735Z,98964.06
2022-12-29T06:04:07.898Z,98958.38
2022-12-29T06:06:35.146Z,98962.16
2022-12-29T06:09:02.842Z,98955.25
2022-12-29T06:11:29.440Z,98957.72
2022-12-29T06:13:58.736Z,98960.56
2022-12-29T06:16:25.362Z,98940.34
2022-12-29T06:18:55.349Z,98945.00
2022-12-29T06:21:22.381Z,98951.72
2022-12-29T06:23:49.372Z,98942.44
2022-12-29T06:26:16.083Z,98939.88
2022-12-29T06:28:43.908Z,98945.34
2022-12-29T06:31:12.128Z,98943.91
2022-12-29T06:33:39.231Z,98950.34
2022-12-29T06:36:06.422Z,98947.31
2022-12-29T06:38:32.993Z,98935.03
2022-12-29T06:41:00.216Z,98927.88
2022-12-29T06:43:38.908Z,98934.63
2022-12-29T06:46:15.604Z,98944.38
2022-12-29T06:48:43.223Z,98944.03
2022-12-29T06:51:09.779Z,98962.31
2022-12-29T06:53:36.813Z,98969.97
2022-12-29T06:56:04.239Z,98961.59
2022-12-29T06:58:30.771Z,98971.84
2022-12-29T07:00:57.381Z,98977.22
2022-12-29T07:03:24.430Z,98979.28
2022-12-29T07:05:50.991Z,98997.16
2022-12-29T07:08:17.787Z,99000.94
2022-12-29T07:10:44.656Z,99017.84
2022-12-29T07:13:11.614Z,99014.50
2022-12-29T07:15:38.493Z,99025.19
2022-12-29T07:18:05.538Z,99015.34
2022-12-29T07:20:32.767Z,99020.34
2022-12-29T07:22:59.513Z,99025.03
2022-12-29T07:25:26.072Z,99000.34
2022-12-29T07:27:52.627Z,99010.41
2022-12-29T07:30:19.183Z,99012.00
2022-12-29T07:32:46.084Z,99019.38
2022-12-29T07:35:12.864Z,99021.56
2022-12-29T07:37:39.415Z,99031.16
2022-12-29T07:40:06.537Z,99029.13
2022-12-29T07:42:33.056Z,99041.03
2022-12-29T07:45:00.630Z,99053.19
2022-12-29T07:47:51.264Z,99052.16
2022-12-29T07:50:18.635Z,99054.44
2022-12-29T07:52:45.778Z,99066.47
2022-12-29T07:55:12.307Z,99069.94
2022-12-29T07:57:39.356Z,99061.50
2022-12-29T08:00:06.430Z,99065.28
2022-12-29T08:02:39.009Z,99085.88
2022-12-29T08:05:06.168Z,99086.44
2022-12-29T08:07:32.690Z,99091.06
2022-12-29T08:09:59.296Z,99083.91
2022-12-29T08:12:26.597Z,99073.88
2022-12-29T08:14:53.293Z,99081.38
2022-12-29T08:17:19.820Z,99086.53
2022-12-29T08:19:46.485Z,99083.56
2022-12-29T08:22:14.579Z,99087.84
2022-12-29T08:24:41.547Z,99090.41
2022-12-29T08:27:16.128Z,99102.16
2022-12-29T08:29:46.970Z,99100.81
2022-12-29T08:32:13.858Z,99105.47
2022-12-29T08:34:40.444Z,99124.13
2022-12-29T08:37:07.130Z,99118.06
2022-12-29T08:39:33.737Z,99117.84
2022-12-29T08:42:00.296Z,99123.72
2022-12-29T08:44:27.232Z,99125.47
2022-12-29T08:46:53.818Z,99122.47
2022-12-29T08:49:20.412Z,99123.13
2022-12-29T08:51:47.332Z,99119.19
2022-12-29T08:54:14.133Z,99122.72
2022-12-29T08:56:40.781Z,99118.31
2022-12-29T08:59:07.922Z,99109.69
2022-12-29T09:01:37.394Z,99113.03
2022-12-29T09:04:14.790Z,99118.59
2022-12-29T09:06:43.183Z,99119.69
2022-12-29T09:09:09.773Z,99114.38
2022-12-29T09:11:36.326Z,99115.59
2022-12-29T09:14:03.089Z,99122.97
2022-12-29T09:16:29.668Z,99111.38
2022-12-29T09:18:56.234Z,99112.84
2022-12-29T09:21:22.843Z,99120.84
2022-12-29T09:23:49.783Z,99115.09
2022-12-29T09:26:16.329Z,99110.97
2022-12-29T09:28:43.230Z,99119.69
2022-12-29T09:31:09.856Z,99124.22
2022-12-29T09:33:36.485Z,99129.16
2022-12-29T09:36:05.031Z,99126.72
2022-12-29T09:38:31.885Z,99131.63
2022-12-29T09:41:12.022Z,99124.56
2022-12-29T09:44:03.236Z,99127.09
2022-12-29T09:46:36.020Z,99128.78
2022-12-29T09:49:08.588Z,99116.16
2022-12-29T09:51:38.991Z,99118.19
2022-12-29T09:54:35.496Z,99118.88
2022-12-29T09:57:02.671Z,99120.09
2022-12-29T09:59:41.283Z,99118.41
2022-12-29T10:02:15.480Z,99120.47
2022-12-29T10:04:43.954Z,99122.97
2022-12-29T10:07:55.297Z,99118.00
2022-12-29T10:10:37.050Z,99121.50
2022-12-29T10:13:28.977Z,99111.31
2022-12-29T10:16:32.918Z,99110.50
2022-12-29T10:19:08.103Z,99114.59
2022-12-29T10:22:00.112Z,99110.66
2022-12-29T10:24:30.356Z,99106.97
2022-12-29T10:26:59.574Z,99110.84
2022-12-29T10:29:34.889Z,99103.94
2022-12-29T10:32:12.860Z,99108.94
2022-12-29T10:34:46.166Z,99096.09
2022-12-29T10:37:33.480Z,99094.84
2022-12-29T10:40:13.638Z,99090.06
2022-12-29T10:42:44.362Z,99084.09
2022-12-29T10:45:17.368Z,99085.34
2022-12-29T10:47:57.077Z,99075.19
2022-12-29T10:50:26.498Z,99095.06
2022-12-29T10:52:55.220Z,99087.47
2022-12-29T10:55:34.385Z,99090.41
2022-12-29T10:58:05.768Z,99096.28
2022-12-29T11:00:33.777Z,99089.47
2022-12-29T11:03:29.862Z,99078.72
2022-12-29T11:06:08.064Z,99088.09
2022-12-29T11:08:43.600Z,99081.66
2022-12-29T11:11:11.589Z,99089.09
2022-12-29T11:13:50.382Z,99076.34
2022-12-29T11:16:28.830Z,99095.41
2022-12-29T11:18:55.455Z,99085.09
2022-12-29T11:21:31.503Z,99095.59
2022-12-29T11:24:06.613Z,99096.47
2022-12-29T11:26:35.145Z,99101.53
2022-12-29T11:29:16.828Z,99096.06
2022-12-29T11:31:53.361Z,99095.31
2022-12-29T11:34:26.409Z,99103.13
2022-12-29T11:37:07.291Z,99110.03
2022-12-29T11:39:57.642Z,99100.69
2022-12-29T11:42:48.623Z,99103.78
2022-12-29T11:45:19.798Z,99100.75
2022-12-29T11:47:50.535Z,99102.69
2022-12-29T11:50:23.843Z,99103.00
2022-12-29T11:52:59.644Z,99095.53
2022-12-29T11:55:28.254Z,99099.25
2022-12-29T11:57:57.820Z,99128.59
2022-12-29T12:00:26.747Z,99115.28
2022-12-29T12:03:14.692Z,99119.31
2022-12-29T12:05:54.810Z,99123.38
2022-12-29T12:08:45.580Z,99112.72
2022-12-29T12:11:17.383Z,99125.28
2022-12-29T12:13:58.289Z,99111.69
2022-12-29T12:16:38.743Z,99137.59
2022-12-29T12:19:12.533Z,99124.75
2022-12-29T12:21:46.016Z,99127.94
2022-12-29T12:24:38.738Z,99129.41
2022-12-29T12:27:22.879Z,99116.03
2022-12-29T12:30:00.605Z,99126.81
2022-12-29T12:32:56.493Z,99115.56
2022-12-29T12:35:45.088Z,99131.34
2022-12-29T12:38:31.842Z,99130.44
2022-12-29T12:41:05.351Z,99139.53
2022-12-29T12:43:46.518Z,99123.72
2022-12-29T12:46:35.277Z,99129.88
2022-12-29T12:49:41.407Z,99141.75
2022-12-29T12:52:26.825Z,99135.69
2022-12-29T12:55:15.050Z,99138.53
2022-12-29T12:58:07.076Z,99143.31
2022-12-29T13:00:48.127Z,99154.50
2022-12-29T13:03:44.313Z,99153.38
2022-12-29T13:06:34.699Z,99159.09
2022-12-29T13:09:15.989Z,99165.31
2022-12-29T13:11:56.883Z,99161.78
2022-12-29T13:14:50.636Z,99161.25
2022-12-29T13:17:33.984Z,99166.31
2022-12-29T13:20:33.861Z,99176.06
2022-12-29T13:23:25.509Z,99187.44
2022-12-29T13:26:03.732Z,99193.81
2022-12-29T13:28:41.524Z,99188.31
2022-12-29T13:31:17.004Z,99187.19
2022-12-29T13:34:29.394Z,99206.47
2022-12-29T13:37:00.973Z,99213.72
2022-12-29T13:39:34.834Z,99237.31
2022-12-29T13:42:04.579Z,99211.44
2022-12-29T13:44:36.894Z,99234.22
2022-12-29T13:47:20.601Z,99230.06
2022-12-29T13:49:49.290Z,99243.59
2022-12-29T13:52:25.731Z,99239.56
2022-12-29T13:55:09.484Z,99242.97
2022-12-29T13:57:46.047Z,99249.44
2022-12-29T14:00:24.714Z,99260.66
2022-12-29T14:03:10.135Z,99263.03
2022-12-29T14:05:37.326Z,99262.97
2022-12-29T14:08:17.915Z,99261.59
2022-12-29T14:10:52.783Z,99276.69
2022-12-29T14:13:26.322Z,99269.03
2022-12-29T14:15:57.238Z,99276.44
2022-12-29T14:18:26.129Z,99288.66
2022-12-29T14:21:00.680Z,99281.91
2022-12-29T14:23:48.431Z,99280.31
2022-12-29T14:26:47.327Z,99280.19
2022-12-29T14:29:39.719Z,99290.31
2022-12-29T14:32:26.549Z,99297.22
2022-12-29T14:34:53.927Z,99306.72
2022-12-29T14:37:34.708Z,99303.94
2022-12-29T14:40:19.933Z,99306.03
2022-12-29T14:42:48.556Z,99309.75
2022-12-29T14:45:18.087Z,99321.59
2022-12-29T14:47:46.854Z,99321.06
2022-12-29T14:50:41.630Z,99331.25
2022-12-29T14:53:42.991Z,99329.31
2022-12-29T14:56:14.810Z,99351.66
2022-12-29T14:58:52.630Z,99340.06
2022-12-29T15:01:27.535Z,99355.81
2022-12-29T15:03:59.676Z,99353.47
2022-12-29T15:06:30.818Z,99361.00
2022-12-29T15:09:31.337Z,99358.63
2022-12-29T15:12:24.867Z,99366.81
2022-12-29T15:14:57.073Z,99361.69
2022-12-29T15:17:35.257Z,99363.78
2022-12-29T15:20:18.425Z,99360.50
2022-12-29T15:22:46.769Z,99361.53
2022-12-29T15:25:16.788Z,99365.72
2022-12-29T15:27:49.107Z,99372.28
2022-12-29T15:30:18.234Z,99366.03
2022-12-29T15:32:46.863Z,99390.94
2022-12-29T15:35:24.616Z,99379.47
2022-12-29T15:37:51.141Z,99377.91
2022-12-29T15:40:26.781Z,99389.59
2022-12-29T15:43:27.538Z,99401.69
2022-12-29T15:45:55.856Z,99403.50
2022-12-29T15:48:24.956Z,99392.16
2022-12-29T15:50:52.103Z,99400.66
2022-12-29T15:53:33.026Z,99403.66
2022-12-29T15:56:09.573Z,99396.81
2022-12-29T15:58:51.338Z,99406.44
2022-12-29T16:01:28.994Z,99413.84
2022-12-29T16:03:56.632Z,99420.34
2022-12-29T16:06:40.091Z,99416.50
2022-12-29T16:09:15.412Z,99415.81
2022-12-29T16:11:47.414Z,99419.63
2022-12-29T16:14:19.545Z,99425.16
2022-12-29T16:16:48.388Z,99422.81
2022-12-29T16:19:21.881Z,99419.94
2022-12-29T16:21:49.707Z,99421.56
2022-12-29T16:24:20.439Z,99426.09
2022-12-29T16:27:09.402Z,99429.97
2022-12-29T16:29:36.622Z,99430.78
2022-12-29T16:32:23.181Z,99426.25
2022-12-29T16:35:24.434Z,99423.56
2022-12-29T16:38:17.015Z,99439.69
2022-12-29T16:40:56.520Z,99433.34
2022-12-29T16:43:35.620Z,99433.72
2022-12-29T16:46:02.211Z,99441.88
2022-12-29T16:48:32.165Z,99437.91
2022-12-29T16:51:05.547Z,99435.88
2022-12-29T16:53:39.521Z,99432.75
2022-12-29T16:56:14.320Z,99441.38
2022-12-29T16:58:42.687Z,99439.31
2022-12-29T17:01:15.712Z,99444.59
2022-12-29T17:03:48.543Z,99447.47
2022-12-29T17:06:17.789Z,99439.59
2022-12-29T17:08:45.290Z,99443.84
2022-12-29T17:11:53.888Z,99449.78
2022-12-29T17:14:36.600Z,99448.78
2022-12-29T17:17:05.923Z,99447.75
2022-12-29T17:19:35.793Z,99449.84
2022-12-29T17:22:06.181Z,99456.38
2022-12-29T17:24:32.708Z,99444.63
2022-12-29T17:27:00.772Z,99448.72
2022-12-29T17:29:33.116Z,99445.69
2022-12-29T17:32:01.131Z,99444.16
2022-12-29T17:34:28.335Z,99447.78
2022-12-29T17:36:54.829Z,99448.41
2022-12-29T17:39:21.389Z,99451.63
2022-12-29T17:41:49.111Z,99458.53
2022-12-29T17:44:21.133Z,99459.59
2022-12-29T17:46:48.981Z,99466.22
2022-12-29T17:49:17.965Z,99455.63
2022-12-29T17:51:47.042Z,99464.66
2022-12-29T17:54:25.582Z,99467.91
2022-12-29T17:56:52.651Z,99455.44
2022-12-29T17:59:19.556Z,99463.63
2022-12-29T18:01:48.159Z,99460.22
2022-12-29T18:04:17.858Z,99462.91
2022-12-29T18:06:46.111Z,99465.91
2022-12-29T18:09:18.038Z,99463.38
2022-12-29T18:11:45.386Z,99471.19
2022-12-29T18:14:16.960Z,99471.50
2022-12-29T18:16:43.979Z,99475.22
2022-12-29T18:19:10.577Z,99480.75
2022-12-29T18:21:39.506Z,99476.50
2022-12-29T18:24:06.506Z,99481.75
2022-12-29T18:26:35.768Z,99488.41
2022-12-29T18:29:02.688Z,99489.38
2022-12-29T18:31:31.694Z,99489.06
2022-12-29T18:34:00.576Z,99489.91
2022-12-29T18:36:28.922Z,99478.22
2022-12-29T18:38:55.549Z,99486.47
2022-12-29T18:41:24.999Z,99483.28
2022-12-29T18:43:52.753Z,99481.56
2022-12-29T18:46:23.185Z,99487.91
2022-12-29T18:48:51.579Z,99490.56
2022-12-29T18:51:21.793Z,99491.91
2022-12-29T18:53:49.408Z,99503.94
2022-12-29T18:56:16.543Z,99501.25
2022-12-29T18:58:43.485Z,99484.69
2022-12-29T19:01:20.445Z,99497.06
2022-12-29T19:03:47.922Z,99491.22
2022-12-29T19:06:14.614Z,99494.59
2022-12-29T19:08:41.501Z,99492.91
2022-12-29T19:11:08.076Z,99494.75
2022-12-29T19:13:34.853Z,99494.44
2022-12-29T19:16:01.488Z,99493.25
2022-12-29T19:18:46.302Z,99498.09
2022-12-29T19:21:15.039Z,99502.59
2022-12-29T19:23:41.624Z,99495.47
2022-12-29T19:26:37.672Z,99496.69
2022-12-29T19:29:06.490Z,99486.19
2022-12-29T19:31:33.721Z,99482.53
2022-12-29T19:34:02.816Z,99500.19
2022-12-29T19:36:29.720Z,99505.47
2022-12-29T19:38:56.293Z,99513.94
2022-12-29T19:41:23.052Z,99508.03
2022-12-29T19:43:50.298Z,99505.78
2022-12-29T19:46:19.043Z,99512.31
2022-12-29T19:48:45.825Z,99520.22
2022-12-29T19:51:16.981Z,99523.53
2022-12-29T19:53:44.706Z,99527.16
2022-12-29T19:56:12.153Z,99514.97
2022-12-29T19:58:45.262Z,99516.41
2022-12-29T20:01:17.686Z,99512.41
2022-12-29T20:03:44.585Z,99516.59
2022-12-29T20:06:12.374Z,99525.72
2022-12-29T20:08:39.820Z,99521.09
2022-12-29T20:11:13.761Z,99521.41
2022-12-29T20:13:42.524Z,99530.78
2022-12-29T20:16:15.305Z,99531.97
2022-12-29T20:18:42.635Z,99539.09
2022-12-29T20:21:13.419Z,99538.09
2022-12-29T20:23:40.705Z,99548.44
2022-12-29T20:26:11.374Z,99547.34
2022-12-29T20:28:37.933Z,99542.97
2022-12-29T20:31:15.717Z,99555.59
2022-12-29T20:33:42.426Z,99549.50
2022-12-29T20:36:12.593Z,99548.72
2022-12-29T20:38:39.519Z,99550.94
2022-12-29T20:41:06.350Z,99549.47
2022-12-29T20:43:33.123Z,99559.28
2022-12-29T20:46:00.785Z,99562.25
2022-12-29T20:48:27.801Z,99566.44
2022-12-29T20:50:59.191Z,99564.06
2022-12-29T20:53:30.580Z,99577.75
2022-12-29T20:56:02.139Z,99570.50
2022-12-29T20:58:28.747Z,99576.41
2022-12-29T21:00:56.062Z,99577.09
2022-12-29T21:03:23.435Z,99575.03
2022-12-29T21:05:52.124Z,99586.94
2022-12-29T21:08:18.669Z,99579.88
2022-12-29T21:10:47.362Z,99576.13
2022-12-29T21:13:16.754Z,99588.06
2022-12-29T21:15:45.429Z,99579.16
2022-12-29T21:18:13.669Z,99583.25
2022-12-29T21:20:41.078Z,99593.97
2022-12-29T21:23:07.930Z,99574.44
2022-12-29T21:25:37.526Z,99597.47
2022-12-29T21:28:09.175Z,99600.19
2022-12-29T21:30:36.388Z,99597.94
2022-12-29T21:33:03.300Z,99606.38
2022-12-29T21:35:30.764Z,99606.00
2022-12-29T21:37:57.402Z,99602.16
2022-12-29T21:40:24.089Z,99604.28
2022-12-29T21:42:50.981Z,99605.00
2022-12-29T21:45:26.890Z,99604.41
2022-12-29T21:48:23.137Z,99620.44
2022-12-29T21:51:10.909Z,99625.75
2022-12-29T21:53:41.140Z,99624.53
2022-12-29T21:56:17.844Z,99627.47
2022-12-29T21:59:05.160Z,99633.50
2022-12-29T22:01:53.923Z,99636.38
2022-12-29T22:04:42.099Z,99638.41
2022-12-29T22:07:29.470Z,99635.50
2022-12-29T22:10:16.204Z,99636.50
2022-12-29T22:12:59.175Z,99641.75
2022-12-29T22:15:27.554Z,99640.59
2022-12-29T22:17:55.458Z,99654.69
2022-12-29T22:20:25.669Z,99660.22
2022-12-29T22:22:52.715Z,99663.44
2022-12-29T22:25:19.828Z,99669.03
2022-12-29T22:27:46.974Z,99668.91
2022-12-29T22:30:14.105Z,99667.94
2022-12-29T22:32:40.929Z,99667.19
2022-12-29T22:35:08.577Z,99680.50
2022-12-29T22:37:36.964Z,99682.66
2022-12-29T22:40:05.111Z,99686.56
2022-12-29T22:42:32.312Z,99686.94
2022-12-29T22:44:58.991Z,99685.13
2022-12-29T22:47:25.897Z,99688.94
2022-12-29T22:49:52.800Z,99690.47
2022-12-29T22:52:19.372Z,99692.88
2022-12-29T22:54:46.122Z,99696.75
2022-12-29T22:57:12.693Z,99700.41
2022-12-29T22:59:39.994Z,99706.44
2022-12-29T23:02:06.604Z,99702.38
2022-12-29T23:05:02.406Z,99710.03
2022-12-29T23:07:19.876Z,99711.84
2022-12-29T23:09:47.055Z,99721.13
2022-12-29T23:12:13.629Z,99704.28
2022-12-29T23:14:40.140Z,99706.16
2022-12-29T23:17:06.684Z,99715.44
2022-12-29T23:19:33.238Z,99716.78
2022-12-29T23:21:59.924Z,99713.38
2022-12-29T23:24:26.481Z,99713.00
2022-12-29T23:26:53.057Z,99723.63
2022-12-29T23:29:20.301Z,99716.91
2022-12-29T23:31:47.847Z,99724.16
2022-12-29T23:34:15.961Z,99715.84
2022-12-29T23:36:43.150Z,99737.34
2022-12-29T23:39:15.737Z,99732.06
2022-12-29T23:41:42.285Z,99743.53
2022-12-29T23:44:08.959Z,99732.91
2022-12-29T23:46:36.786Z,99747.75
2022-12-29T23:49:03.815Z,99740.69
2022-12-29T23:51:30.363Z,99747.19
2022-12-29T23:53:56.955Z,99747.28
2022-12-29T23:56:23.620Z,99762.16
2022-12-29T23:58:50.754Z,99765.00
